Time;durP1;ratioP1;P1;durP2;ratioP2;P2;SDS_P1;SDS_P2;PMS_P1;PMS_P2;Temp;Humidity;BMP_temperature;BMP_pressure;BME280_temperature;BME280_humidity;BME280_pressure;Samples;Min_cycle;Max_cycle;Signal;HPM_P1;HPM_P2
2023/04/02 00:01:12;;;;;;;;;;;5.80;99.90;;;;;;5076022;28;20122;-57
2023/04/02 00:03:43;;;;;;;;;;;5.80;99.90;;;;;;5075541;28;20293;-57
2023/04/02 00:06:29;;;;;;;;;;;5.70;99.90;;;;;;5058078;28;19917;-57
2023/04/02 00:08:57;;;;;;;;;;;5.80;99.90;;;;;;5075909;28;19915;-57
2023/04/02 00:11:34;;;;;;;;;;;5.80;99.90;;;;;;5075991;28;19919;-57
2023/04/02 00:14:01;;;;;;;;;;;5.80;99.90;;;;;;5075821;28;19963;-57
2023/04/02 00:16:27;;;;;;;;;;;5.70;99.90;;;;;;5076013;28;19916;-57
2023/04/02 00:18:56;;;;;;;;;;;5.60;99.90;;;;;;5075946;28;19919;-57
2023/04/02 00:21:24;;;;;;;;;;;5.60;99.90;;;;;;5075724;28;19916;-57
2023/04/02 00:23:52;;;;;;;;;;;5.60;99.90;;;;;;5075677;28;20324;-57
2023/04/02 00:26:36;;;;;;;;;;;5.50;99.90;;;;;;5075764;28;19916;-57
2023/04/02 00:29:06;;;;;;;;;;;5.60;99.90;;;;;;5057525;28;20317;-57
2023/04/02 00:31:32;;;;;;;;;;;5.70;99.90;;;;;;5075769;28;19920;-57
2023/04/02 00:33:59;;;;;;;;;;;5.70;99.90;;;;;;5075698;28;20507;-57
2023/04/02 00:36:28;;;;;;;;;;;5.60;99.90;;;;;;5075387;28;19916;-57
2023/04/02 00:38:56;;;;;;;;;;;5.50;99.90;;;;;;5075383;28;20299;-57
2023/04/02 00:41:23;;;;;;;;;;;5.60;99.90;;;;;;5075454;28;20177;-57
2023/04/02 00:43:53;;;;;;;;;;;5.50;99.90;;;;;;5057558;28;19919;-57
2023/04/02 00:46:22;;;;;;;;;;;5.60;99.90;;;;;;5057495;28;19942;-57
2023/04/02 00:48:56;;;;;;;;;;;5.70;99.90;;;;;;5057417;28;19975;-57
2023/04/02 00:51:28;;;;;;;;;;;5.80;99.90;;;;;;5075274;28;20274;-57
2023/04/02 00:53:56;;;;;;;;;;;5.80;99.90;;;;;;5075255;28;20421;-57
2023/04/02 00:56:26;;;;;;;;;;;5.80;99.90;;;;;;5075022;28;20410;-57
2023/04/02 00:58:52;;;;;;;;;;;5.70;99.90;;;;;;5075135;28;19916;-57
2023/04/02 01:01:21;;;;;;;;;;;5.80;99.90;;;;;;5075279;28;19920;-57
2023/04/02 01:03:57;;;;;;;;;;;5.70;99.90;;;;;;5075160;28;19913;-57
2023/04/02 01:06:28;;;;;;;;;;;5.50;99.90;;;;;;5056994;28;19919;-57
2023/04/02 01:09:29;;;;;;;;;;;5.50;99.90;;;;;;5074890;28;19923;-57
2023/04/02 01:11:55;;;;;;;;;;;5.50;99.90;;;;;;4993259;28;20291;-57
2023/04/02 01:14:39;;;;;;;;;;;5.50;99.90;;;;;;5058147;28;19912;-57
2023/04/02 01:17:19;;;;;;;;;;;5.60;99.90;;;;;;5074763;28;19924;-57
2023/04/02 01:19:57;;;;;;;;;;;5.60;99.90;;;;;;5056991;28;19984;-57
2023/04/02 01:22:33;;;;;;;;;;;5.60;99.90;;;;;;5074916;28;19912;-57
2023/04/02 01:25:03;;;;;;;;;;;5.50;99.90;;;;;;5074849;28;19912;-57
2023/04/02 01:27:33;;;;;;;;;;;5.60;99.90;;;;;;5075049;28;19912;-57
2023/04/02 01:30:00;;;;;;;;;;;5.50;99.90;;;;;;5074879;28;19913;-57
2023/04/02 01:32:27;;;;;;;;;;;5.40;99.90;;;;;;5074770;28;19960;-57
2023/04/02 01:34:54;;;;;;;;;;;5.40;99.90;;;;;;5074720;28;19913;-57
2023/04/02 01:37:33;;;;;;;;;;;5.20;99.90;;;;;;5074791;28;19939;-57
2023/04/02 01:40:17;;;;;;;;;;;5.30;99.90;;;;;;5074723;28;20313;-57
2023/04/02 01:42:46;;;;;;;;;;;5.40;99.90;;;;;;5056813;28;19919;-57
2023/04/02 01:45:14;;;;;;;;;;;5.20;99.90;;;;;;5056589;28;19913;-57
2023/04/02 01:47:40;;;;;;;;;;;5.10;99.90;;;;;;5074677;28;19916;-57
2023/04/02 01:50:06;;;;;;;;;;;5.10;99.90;;;;;;5074845;28;19914;-57
2023/04/02 01:52:39;;;;;;;;;;;4.80;99.90;;;;;;5077280;28;20369;-57
2023/04/02 01:55:11;;;;;;;;;;;4.70;99.90;;;;;;5060489;28;19928;-57
2023/04/02 01:57:42;;;;;;;;;;;4.70;99.90;;;;;;5060784;28;19921;-57
2023/04/02 02:00:13;;;;;;;;;;;4.70;99.90;;;;;;5078504;28;19947;-57
2023/04/02 02:02:39;;;;;;;;;;;4.60;99.90;;;;;;5078688;28;19923;-57
2023/04/02 02:05:13;;;;;;;;;;;4.70;99.90;;;;;;5060559;28;19913;-57
2023/04/02 02:07:41;;;;;;;;;;;4.50;99.90;;;;;;5060392;28;20305;-57
2023/04/02 02:10:13;;;;;;;;;;;4.50;99.90;;;;;;5060776;28;19908;-57
2023/04/02 02:12:40;;;;;;;;;;;4.30;99.90;;;;;;5079217;28;19925;-57
2023/04/02 02:15:12;;;;;;;;;;;4.30;99.90;;;;;;5060879;28;19916;-57
2023/04/02 02:17:38;;;;;;;;;;;4.20;99.90;;;;;;5079093;28;20403;-57
2023/04/02 02:20:10;;;;;;;;;;;4.10;99.90;;;;;;5079030;28;19955;-57
2023/04/02 02:22:37;;;;;;;;;;;4.10;99.90;;;;;;5060845;28;19912;-57
2023/04/02 02:25:06;;;;;;;;;;;4.00;99.90;;;;;;5078933;28;19951;-57
2023/04/02 02:27:32;;;;;;;;;;;4.00;99.90;;;;;;5078910;28;19913;-57
2023/04/02 02:30:11;;;;;;;;;;;3.90;99.90;;;;;;5060655;28;19962;-57
2023/04/02 02:32:41;;;;;;;;;;;4.00;99.90;;;;;;5060749;28;19927;-57
2023/04/02 02:35:14;;;;;;;;;;;4.10;99.90;;;;;;5060570;28;19916;-57
2023/04/02 02:37:42;;;;;;;;;;;4.30;99.90;;;;;;5060714;28;19916;-57
2023/04/02 02:40:20;;;;;;;;;;;4.40;99.90;;;;;;5060686;28;20439;-57
2023/04/02 02:42:55;;;;;;;;;;;4.50;99.90;;;;;;5059694;28;19912;-57
2023/04/02 02:45:24;;;;;;;;;;;4.40;99.90;;;;;;5077818;28;20389;-57
2023/04/02 02:47:50;;;;;;;;;;;4.30;99.90;;;;;;5078503;28;19916;-57
2023/04/02 02:50:21;;;;;;;;;;;4.40;99.90;;;;;;5060408;28;19970;-57
2023/04/02 02:52:54;;;;;;;;;;;4.30;99.90;;;;;;5078295;28;19920;-57
2023/04/02 02:55:22;;;;;;;;;;;4.20;99.90;;;;;;5060102;28;19935;-57
2023/04/02 02:58:32;;;;;;;;;;;4.20;99.90;;;;;;5060251;28;19912;-57
2023/04/02 03:01:19;;;;;;;;;;;4.10;99.90;;;;;;4980143;28;20700;-57
2023/04/02 03:03:48;;;;;;;;;;;4.20;99.90;;;;;;4979629;28;19914;-57
2023/04/02 03:06:15;;;;;;;;;;;4.20;99.90;;;;;;4982322;28;19917;-57
2023/04/02 03:08:47;;;;;;;;;;;4.30;99.90;;;;;;4979502;28;20060;-57
2023/04/02 03:11:19;;;;;;;;;;;4.40;99.90;;;;;;4996189;28;20452;-56
2023/04/02 03:13:47;;;;;;;;;;;4.30;99.90;;;;;;4980002;28;19956;-57
2023/04/02 03:16:42;;;;;;;;;;;4.20;99.90;;;;;;4979788;28;19918;-57
2023/04/02 03:19:28;;;;;;;;;;;4.10;99.90;;;;;;4993827;28;19926;-57
2023/04/02 03:22:02;;;;;;;;;;;4.20;99.90;;;;;;4979414;28;19918;-57
2023/04/02 03:24:40;;;;;;;;;;;4.20;99.90;;;;;;4979750;28;19976;-57
2023/04/02 03:27:12;;;;;;;;;;;4.10;99.90;;;;;;4979689;28;19917;-57
2023/04/02 03:29:40;;;;;;;;;;;4.00;99.90;;;;;;4994900;28;20326;-57
2023/04/02 03:32:24;;;;;;;;;;;3.90;99.90;;;;;;4978802;28;19928;-57
2023/04/02 03:34:54;;;;;;;;;;;3.80;99.90;;;;;;5015600;28;19916;-57
2023/04/02 03:37:41;;;;;;;;;;;3.80;99.90;;;;;;5058995;28;19928;-57
2023/04/02 03:40:09;;;;;;;;;;;3.80;99.90;;;;;;5058773;28;19913;-57
2023/04/02 03:42:42;;;;;;;;;;;3.80;99.90;;;;;;5058686;28;20003;-57
2023/04/02 03:45:11;;;;;;;;;;;3.90;99.90;;;;;;5058643;28;19958;-57
2023/04/02 03:47:50;;;;;;;;;;;3.90;99.90;;;;;;5076579;28;19959;-57
2023/04/02 03:50:24;;;;;;;;;;;3.90;99.90;;;;;;5058376;28;20018;-57
2023/04/02 03:52:52;;;;;;;;;;;4.00;99.90;;;;;;5058355;28;19955;-57
2023/04/02 03:55:18;;;;;;;;;;;3.90;99.90;;;;;;5058228;28;19924;-57
2023/04/02 03:57:44;;;;;;;;;;;3.80;99.90;;;;;;5058527;28;19938;-57
2023/04/02 04:00:15;;;;;;;;;;;3.80;99.90;;;;;;5076309;28;19916;-57
2023/04/02 04:02:44;;;;;;;;;;;3.80;99.90;;;;;;5076273;28;20353;-57
2023/04/02 04:05:30;;;;;;;;;;;3.70;99.90;;;;;;5058404;28;19923;-57
2023/04/02 04:08:03;;;;;;;;;;;3.80;99.90;;;;;;5058047;28;19928;-57
2023/04/02 04:10:30;;;;;;;;;;;3.90;99.90;;;;;;5058164;28;19912;-57
2023/04/02 04:13:00;;;;;;;;;;;3.90;99.90;;;;;;5058379;28;20289;-57
2023/04/02 04:15:26;;;;;;;;;;;3.90;99.90;;;;;;5057379;28;20281;-56
2023/04/02 04:17:55;;;;;;;;;;;3.80;99.90;;;;;;5075931;28;19922;-56
2023/04/02 04:20:44;;;;;;;;;;;3.90;99.90;;;;;;5057974;28;20273;-57
2023/04/02 04:23:15;;;;;;;;;;;3.90;99.90;;;;;;5057933;28;19917;-57
2023/04/02 04:25:41;;;;;;;;;;;3.80;99.90;;;;;;5057758;28;19919;-57
2023/04/02 04:28:24;;;;;;;;;;;3.80;99.90;;;;;;5057980;28;19916;-57
2023/04/02 04:30:51;;;;;;;;;;;4.00;99.90;;;;;;5057719;28;19956;-57
2023/04/02 04:33:24;;;;;;;;;;;4.10;99.90;;;;;;5057774;28;19968;-57
2023/04/02 04:35:56;;;;;;;;;;;4.10;99.90;;;;;;5075531;28;19920;-57
2023/04/02 04:38:31;;;;;;;;;;;4.20;99.90;;;;;;5057421;28;19955;-57
2023/04/02 04:41:10;;;;;;;;;;;4.20;99.90;;;;;;5057641;28;19934;-57
2023/04/02 04:43:44;;;;;;;;;;;4.20;99.90;;;;;;5057417;28;19951;-57
2023/04/02 04:46:16;;;;;;;;;;;4.20;99.90;;;;;;5057508;28;19958;-57
2023/04/02 04:48:48;;;;;;;;;;;4.30;99.90;;;;;;5057486;28;19912;-56
2023/04/02 04:51:26;;;;;;;;;;;4.40;99.90;;;;;;5075238;28;19943;-57
2023/04/02 04:53:54;;;;;;;;;;;4.50;99.90;;;;;;5057060;28;20378;-57
2023/04/02 04:56:27;;;;;;;;;;;4.60;99.90;;;;;;5057381;28;19916;-57
2023/04/02 04:59:22;;;;;;;;;;;4.60;99.90;;;;;;5057275;28;19962;-57
2023/04/02 05:01:52;;;;;;;;;;;4.70;99.90;;;;;;5057369;28;20365;-57
2023/04/02 05:04:24;;;;;;;;;;;4.80;99.90;;;;;;5057205;28;19941;-57
2023/04/02 05:06:50;;;;;;;;;;;4.80;99.90;;;;;;5056978;28;19917;-56
2023/04/02 05:09:39;;;;;;;;;;;5.00;99.90;;;;;;5057075;28;20357;-57
2023/04/02 05:12:14;;;;;;;;;;;5.10;99.90;;;;;;5064328;28;20282;-57
2023/04/02 05:14:48;;;;;;;;;;;5.20;99.90;;;;;;5057061;28;19912;-57
2023/04/02 05:17:18;;;;;;;;;;;5.30;99.90;;;;;;5074979;28;20286;-57
2023/04/02 05:19:46;;;;;;;;;;;5.40;99.90;;;;;;5074865;28;20326;-57
2023/04/02 05:22:33;;;;;;;;;;;5.50;99.90;;;;;;5057143;28;19971;-57
2023/04/02 05:25:08;;;;;;;;;;;5.70;99.90;;;;;;5057002;28;19916;-57
2023/04/02 05:27:37;;;;;;;;;;;5.70;99.90;;;;;;5056279;28;19987;-57
2023/04/02 05:30:09;;;;;;;;;;;5.90;99.90;;;;;;5056938;28;19920;-57
2023/04/02 05:32:37;;;;;;;;;;;6.10;99.90;;;;;;5056853;28;20305;-57
2023/04/02 05:35:06;;;;;;;;;;;6.20;99.90;;;;;;5056573;28;19913;-57
2023/04/02 05:37:37;;;;;;;;;;;6.40;99.90;;;;;;5056778;28;20318;-57
2023/04/02 05:40:18;;;;;;;;;;;6.60;99.90;;;;;;5056703;28;19965;-57
2023/04/02 05:42:47;;;;;;;;;;;6.80;99.90;;;;;;5056696;28;19920;-57
2023/04/02 05:45:25;;;;;;;;;;;6.80;99.90;;;;;;5056731;28;20366;-56
2023/04/02 05:47:58;;;;;;;;;;;7.10;99.90;;;;;;5056743;28;19916;-57
2023/04/02 05:50:29;;;;;;;;;;;7.10;99.90;;;;;;5056676;28;19918;-57
2023/04/02 05:52:58;;;;;;;;;;;7.40;99.90;;;;;;5053250;28;19928;-57
2023/04/02 05:55:35;;;;;;;;;;;7.50;99.90;;;;;;5053122;28;19916;-57
2023/04/02 05:58:10;;;;;;;;;;;7.70;99.90;;;;;;5053325;28;19912;-57
2023/04/02 06:00:36;;;;;;;;;;;8.00;99.90;;;;;;5053266;28;19923;-57
2023/04/02 06:03:26;;;;;;;;;;;8.10;99.90;;;;;;5053172;28;19999;-57
2023/04/02 06:05:56;;;;;;;;;;;8.20;99.90;;;;;;5047864;28;19913;-57
2023/04/02 06:08:40;;;;;;;;;;;8.50;99.90;;;;;;5054361;28;19956;-57
2023/04/02 06:11:16;;;;;;;;;;;8.70;99.90;;;;;;5054340;28;19952;-57
2023/04/02 06:13:42;;;;;;;;;;;9.00;99.90;;;;;;5053420;28;19913;-57
2023/04/02 06:16:11;;;;;;;;;;;9.10;99.90;;;;;;5052956;28;19943;-57
2023/04/02 06:18:37;;;;;;;;;;;9.20;99.90;;;;;;5054261;28;19975;-57
2023/04/02 06:21:04;;;;;;;;;;;9.50;99.90;;;;;;5053101;28;19964;-57
2023/04/02 06:24:02;;;;;;;;;;;9.60;99.90;;;;;;5053066;28;19962;-57
2023/04/02 06:26:38;;;;;;;;;;;9.80;99.90;;;;;;5031233;28;20290;-57
2023/04/02 06:29:10;;;;;;;;;;;10.00;99.90;;;;;;5053075;28;19921;-57
2023/04/02 06:31:43;;;;;;;;;;;10.30;99.90;;;;;;5052845;28;20011;-57
2023/04/02 06:34:19;;;;;;;;;;;10.50;99.90;;;;;;5052905;28;19913;-57
2023/04/02 06:37:01;;;;;;;;;;;11.00;99.90;;;;;;5052851;28;19967;-57
2023/04/02 06:39:28;;;;;;;;;;;11.20;99.90;;;;;;5056756;28;19980;-57
2023/04/02 06:41:58;;;;;;;;;;;11.10;99.90;;;;;;5056739;28;20397;-57
2023/04/02 06:44:43;;;;;;;;;;;11.40;99.90;;;;;;5057900;28;19921;-57
2023/04/02 06:47:34;;;;;;;;;;;11.60;99.90;;;;;;5057290;28;20313;-58
2023/04/02 06:50:04;;;;;;;;;;;11.70;99.90;;;;;;5056321;28;20476;-57
2023/04/02 06:52:34;;;;;;;;;;;12.10;99.90;;;;;;5057108;28;19916;-58
2023/04/02 06:55:04;;;;;;;;;;;12.40;99.90;;;;;;5059681;28;19916;-58
2023/04/02 06:57:34;;;;;;;;;;;12.60;99.90;;;;;;5059640;28;19959;-58
2023/04/02 07:00:00;;;;;;;;;;;12.40;99.90;;;;;;5059577;28;19913;-58
2023/04/02 07:02:35;;;;;;;;;;;12.60;99.90;;;;;;5059577;28;19912;-58
2023/04/02 07:05:10;;;;;;;;;;;12.70;99.90;;;;;;5059287;28;19912;-58
2023/04/02 07:07:40;;;;;;;;;;;12.80;99.90;;;;;;5059320;28;19956;-58
2023/04/02 07:10:10;;;;;;;;;;;12.80;99.90;;;;;;5059012;28;20262;-58
2023/04/02 07:12:36;;;;;;;;;;;12.80;99.90;;;;;;5059346;28;19970;-57
2023/04/02 07:15:02;;;;;;;;;;;13.10;99.90;;;;;;5059261;28;19913;-58
2023/04/02 07:17:29;;;;;;;;;;;13.40;99.90;;;;;;5059183;28;20358;-58
2023/04/02 07:19:55;;;;;;;;;;;13.50;99.90;;;;;;5077005;28;19920;-58
2023/04/02 07:22:22;;;;;;;;;;;13.20;99.90;;;;;;5059021;28;20361;-58
2023/04/02 07:24:55;;;;;;;;;;;13.60;99.90;;;;;;5058909;28;20019;-58
2023/04/02 07:27:21;;;;;;;;;;;14.20;99.90;;;;;;5077247;28;19967;-58
2023/04/02 07:29:46;;;;;;;;;;;14.70;99.90;;;;;;5076983;28;19919;-58
2023/04/02 07:32:12;;;;;;;;;;;14.90;99.90;;;;;;5077098;28;19912;-58
2023/04/02 07:34:39;;;;;;;;;;;15.20;99.90;;;;;;5076258;28;19912;-58
2023/04/02 07:37:05;;;;;;;;;;;15.50;99.90;;;;;;5076814;28;19928;-58
2023/04/02 07:39:31;;;;;;;;;;;15.90;99.90;;;;;;5076779;28;19912;-58
2023/04/02 07:41:58;;;;;;;;;;;16.50;99.90;;;;;;5076732;28;19908;-58
2023/04/02 07:44:24;;;;;;;;;;;16.70;99.90;;;;;;5076556;28;19986;-58
2023/04/02 07:46:50;;;;;;;;;;;16.80;99.90;;;;;;5076824;28;19912;-58
2023/04/02 07:49:15;;;;;;;;;;;17.10;99.90;;;;;;5075271;28;19973;-58
2023/04/02 07:51:41;;;;;;;;;;;17.40;99.90;;;;;;5076654;28;19934;-58
2023/04/02 07:54:09;;;;;;;;;;;17.60;99.90;;;;;;5076172;28;19920;-58
2023/04/02 07:56:35;;;;;;;;;;;17.60;99.90;;;;;;5058414;28;19924;-58
2023/04/02 07:59:02;;;;;;;;;;;18.00;99.90;;;;;;5076691;28;19965;-58
2023/04/02 08:01:28;;;;;;;;;;;18.20;99.90;;;;;;5076409;28;19913;-58
2023/04/02 08:03:55;;;;;;;;;;;18.20;99.90;;;;;;5076255;28;19920;-58
2023/04/02 08:06:21;;;;;;;;;;;18.60;99.90;;;;;;5076145;28;20002;-58
2023/04/02 08:08:47;;;;;;;;;;;18.80;99.90;;;;;;5076058;28;19919;-59
2023/04/02 08:11:13;;;;;;;;;;;18.40;99.90;;;;;;5076053;28;20274;-58
2023/04/02 08:13:39;;;;;;;;;;;18.90;99.90;;;;;;5075875;28;20333;-58
2023/04/02 08:16:06;;;;;;;;;;;19.20;99.90;;;;;;5075939;28;19924;-58
2023/04/02 08:18:31;;;;;;;;;;;19.00;99.90;;;;;;5075949;28;19918;-58
2023/04/02 08:20:57;;;;;;;;;;;19.00;99.90;;;;;;5075841;28;19912;-58
2023/04/02 08:23:24;;;;;;;;;;;19.00;99.90;;;;;;5075882;28;19928;-59
2023/04/02 08:25:50;;;;;;;;;;;19.20;99.90;;;;;;5075896;28;19969;-59
2023/04/02 08:28:16;;;;;;;;;;;19.40;99.90;;;;;;5075846;28;19917;-59
2023/04/02 08:30:42;;;;;;;;;;;20.00;99.90;;;;;;5075635;28;19912;-59
2023/04/02 08:33:08;;;;;;;;;;;20.20;99.90;;;;;;5075555;28;19912;-59
2023/04/02 08:35:34;;;;;;;;;;;20.30;99.90;;;;;;5075531;28;19919;-59
2023/04/02 08:38:00;;;;;;;;;;;20.60;99.90;;;;;;5075414;28;20042;-59
2023/04/02 08:40:29;;;;;;;;;;;20.90;99.90;;;;;;5075547;28;19919;-59
2023/04/02 08:42:55;;;;;;;;;;;21.00;99.90;;;;;;5075578;28;19916;-59
2023/04/02 08:45:40;;;;;;;;;;;21.20;99.90;;;;;;5075800;28;20349;-59
2023/04/02 08:48:08;;;;;;;;;;;20.90;99.90;;;;;;5075294;28;19913;-59
2023/04/02 08:50:36;;;;;;;;;;;21.20;99.90;;;;;;5075349;28;19917;-59
2023/04/02 08:53:11;;;;;;;;;;;21.20;99.90;;;;;;5074946;28;19952;-59
2023/04/02 08:55:46;;;;;;;;;;;21.50;99.90;;;;;;5075132;28;19920;-59
2023/04/02 08:58:19;;;;;;;;;;;21.50;99.90;;;;;;5075366;28;19958;-59
2023/04/02 09:00:47;;;;;;;;;;;21.60;99.90;;;;;;5074936;28;19970;-59
2023/04/02 09:03:13;;;;;;;;;;;21.80;99.90;;;;;;5075322;28;19954;-59
2023/04/02 09:05:41;;;;;;;;;;;21.90;99.90;;;;;;5075038;28;19913;-59
2023/04/02 09:08:20;;;;;;;;;;;21.60;99.90;;;;;;5075010;28;20373;-59
2023/04/02 09:10:57;;;;;;;;;;;21.30;99.90;;;;;;5075234;28;19919;-59
2023/04/02 09:13:25;;;;;;;;;;;21.10;99.90;;;;;;5075154;28;19913;-59
2023/04/02 09:15:54;;;;;;;;;;;22.10;99.90;;;;;;5074701;28;19916;-59
2023/04/02 09:18:20;;;;;;;;;;;22.60;99.90;;;;;;5075072;28;19912;-59
2023/04/02 09:20:48;;;;;;;;;;;22.90;99.90;;;;;;5074809;28;19928;-59
2023/04/02 09:23:22;;;;;;;;;;;23.00;99.90;;;;;;5075000;28;20004;-59
2023/04/02 09:25:50;;;;;;;;;;;21.90;99.90;;;;;;5074796;28;19954;-59
2023/04/02 09:28:16;;;;;;;;;;;22.20;99.90;;;;;;5074825;28;20317;-59
2023/04/02 09:30:41;;;;;;;;;;;22.70;99.90;;;;;;5074846;28;19920;-59
2023/04/02 09:33:07;;;;;;;;;;;22.80;99.90;;;;;;5074852;28;20396;-59
2023/04/02 09:35:48;;;;;;;;;;;22.20;99.90;;;;;;5074966;28;19930;-59
2023/04/02 09:38:20;;;;;;;;;;;22.80;99.90;;;;;;5074863;28;20367;-59
2023/04/02 09:40:50;;;;;;;;;;;23.00;99.90;;;;;;5074962;28;20007;-59
2023/04/02 09:43:18;;;;;;;;;;;23.20;99.90;;;;;;5074821;28;19922;-59
2023/04/02 09:45:54;;;;;;;;;;;23.00;99.90;;;;;;5074797;28;19916;-59
2023/04/02 09:48:24;;;;;;;;;;;23.00;99.90;;;;;;5074758;28;20399;-59
2023/04/02 09:51:02;;;;;;;;;;;21.90;99.90;;;;;;5074662;28;19916;-59
2023/04/02 09:53:32;;;;;;;;;;;21.90;99.90;;;;;;5074537;28;19920;-59
2023/04/02 09:56:09;;;;;;;;;;;22.50;99.90;;;;;;5074594;28;20263;-59
2023/04/02 09:58:35;;;;;;;;;;;23.00;99.90;;;;;;5074668;28;20357;-59
2023/04/02 10:01:01;;;;;;;;;;;23.30;99.90;;;;;;5074622;28;19966;-59
2023/04/02 10:03:27;;;;;;;;;;;23.60;99.90;;;;;;5074513;28;19912;-59
2023/04/02 10:06:07;;;;;;;;;;;23.40;99.90;;;;;;5074424;28;19909;-59
2023/04/02 10:08:34;;;;;;;;;;;22.60;99.90;;;;;;5074365;28;19991;-59
2023/04/02 10:11:21;;;;;;;;;;;23.10;99.90;;;;;;5074452;28;19916;-59
2023/04/02 10:13:57;;;;;;;;;;;23.50;99.90;;;;;;5077459;28;19924;-59
2023/04/02 10:16:32;;;;;;;;;;;24.40;99.90;;;;;;5078286;28;19946;-59
2023/04/02 10:19:04;;;;;;;;;;;24.90;99.90;;;;;;5078364;28;19936;-59
2023/04/02 10:21:32;;;;;;;;;;;25.00;99.90;;;;;;5078299;28;19927;-59
2023/04/02 10:24:01;;;;;;;;;;;25.10;99.90;;;;;;5078341;28;20003;-59
2023/04/02 10:26:27;;;;;;;;;;;25.40;99.90;;;;;;5078224;28;19912;-59
2023/04/02 10:29:12;;;;;;;;;;;25.50;99.90;;;;;;5078038;28;19935;-59
2023/04/02 10:31:56;;;;;;;;;;;25.20;99.90;;;;;;5078001;28;19916;-59
2023/04/02 10:34:22;;;;;;;;;;;25.60;99.90;;;;;;5078211;28;20512;-59
2023/04/02 10:36:49;;;;;;;;;;;25.80;99.90;;;;;;5077851;28;19991;-59
2023/04/02 10:39:19;;;;;;;;;;;25.40;99.90;;;;;;5077791;28;20287;-59
2023/04/02 10:41:44;;;;;;;;;;;25.00;99.90;;;;;;5077893;28;19916;-59
2023/04/02 10:44:13;;;;;;;;;;;23.60;99.90;;;;;;5077787;28;19912;-59
2023/04/02 10:46:45;;;;;;;;;;;23.90;99.90;;;;;;5077808;28;20305;-59
2023/04/02 10:49:14;;;;;;;;;;;22.80;99.90;;;;;;5077639;28;19963;-59
2023/04/02 10:51:46;;;;;;;;;;;23.50;99.90;;;;;;5077712;28;20308;-59
2023/04/02 10:54:21;;;;;;;;;;;23.00;99.90;;;;;;5077467;28;20332;-59
2023/04/02 10:56:48;;;;;;;;;;;22.00;99.90;;;;;;5077365;28;20018;-59
2023/04/02 10:59:25;;;;;;;;;;;22.60;99.90;;;;;;5077647;28;19966;-59
2023/04/02 11:01:51;;;;;;;;;;;23.20;99.90;;;;;;5077453;28;19916;-59
2023/04/02 11:04:30;;;;;;;;;;;23.30;99.90;;;;;;5077364;28;20007;-59
2023/04/02 11:07:01;;;;;;;;;;;23.00;99.90;;;;;;5057390;28;19916;-59
2023/04/02 11:09:29;;;;;;;;;;;22.70;99.90;;;;;;5057228;28;19920;-59
2023/04/02 11:11:56;;;;;;;;;;;22.10;99.90;;;;;;5057179;28;20306;-59
2023/04/02 11:14:26;;;;;;;;;;;21.10;99.90;;;;;;5057165;28;19960;-59
2023/04/02 11:16:53;;;;;;;;;;;21.30;99.90;;;;;;5057139;28;19916;-59
2023/04/02 11:19:24;;;;;;;;;;;20.90;99.90;;;;;;5057088;28;19917;-58
2023/04/02 11:21:50;;;;;;;;;;;20.90;99.90;;;;;;5057059;28;19916;-58
2023/04/02 11:24:22;;;;;;;;;;;20.80;99.90;;;;;;5056984;28;19916;-59
2023/04/02 11:26:47;;;;;;;;;;;20.80;99.90;;;;;;5056968;28;19920;-58
2023/04/02 11:29:13;;;;;;;;;;;20.70;99.90;;;;;;5056931;28;20290;-58
2023/04/02 11:31:40;;;;;;;;;;;20.50;99.90;;;;;;5056875;28;19941;-58
2023/04/02 11:34:10;;;;;;;;;;;20.50;99.90;;;;;;5056811;28;19964;-58
2023/04/02 11:36:54;;;;;;;;;;;20.40;99.90;;;;;;5056859;28;19940;-58
2023/04/02 11:39:39;;;;;;;;;;;20.10;99.90;;;;;;5056827;28;20308;-58
2023/04/02 11:42:20;;;;;;;;;;;19.80;99.90;;;;;;5056674;28;19917;-58
2023/04/02 11:44:46;;;;;;;;;;;19.60;99.90;;;;;;5056592;28;19920;-58
2023/04/02 11:47:19;;;;;;;;;;;19.30;99.90;;;;;;5056715;28;19912;-58
2023/04/02 11:50:01;;;;;;;;;;;19.10;99.90;;;;;;5056495;28;19916;-58
2023/04/02 11:52:48;;;;;;;;;;;19.00;99.90;;;;;;5056444;28;19919;-58
2023/04/02 11:55:26;;;;;;;;;;;18.50;99.90;;;;;;5056549;28;19912;-58
2023/04/02 11:58:00;;;;;;;;;;;18.30;99.90;;;;;;5056192;28;19920;-58
2023/04/02 12:00:47;;;;;;;;;;;18.20;99.90;;;;;;5056505;28;19920;-58
2023/04/02 12:03:19;;;;;;;;;;;17.70;99.90;;;;;;5056408;28;20011;-58
2023/04/02 12:05:53;;;;;;;;;;;17.50;99.90;;;;;;5069205;28;19920;-58
2023/04/02 12:08:21;;;;;;;;;;;17.20;99.90;;;;;;5075971;28;19924;-58
2023/04/02 12:10:50;;;;;;;;;;;17.00;99.90;;;;;;5076167;28;19948;-58
2023/04/02 12:13:39;;;;;;;;;;;16.90;99.90;;;;;;5076087;28;20404;-57
2023/04/02 12:16:09;;;;;;;;;;;16.70;99.90;;;;;;5065047;28;19924;-57
2023/04/02 12:18:35;;;;;;;;;;;16.40;99.90;;;;;;5075962;28;19921;-57
2023/04/02 12:21:01;;;;;;;;;;;16.00;99.90;;;;;;5075858;28;19913;-58
2023/04/02 12:23:31;;;;;;;;;;;15.70;99.90;;;;;;5075895;28;19948;-57
2023/04/02 12:25:58;;;;;;;;;;;15.70;99.90;;;;;;5075905;28;19920;-57
2023/04/02 12:28:27;;;;;;;;;;;15.80;99.90;;;;;;5075754;28;19919;-57
2023/04/02 12:31:08;;;;;;;;;;;15.70;99.90;;;;;;5075676;28;19944;-57
2023/04/02 12:33:41;;;;;;;;;;;15.70;99.90;;;;;;5075491;28;19912;-57
2023/04/02 12:36:09;;;;;;;;;;;15.80;99.90;;;;;;5075132;28;20380;-57
2023/04/02 12:38:42;;;;;;;;;;;15.50;99.90;;;;;;5075610;28;20314;-57
2023/04/02 12:41:37;;;;;;;;;;;15.50;99.90;;;;;;5075426;28;19913;-57
2023/04/02 12:44:03;;;;;;;;;;;15.50;99.90;;;;;;5058018;28;20400;-57
2023/04/02 12:46:30;;;;;;;;;;;15.20;99.90;;;;;;5075378;28;19951;-57
2023/04/02 12:49:19;;;;;;;;;;;15.40;99.90;;;;;;5075519;28;20373;-57
2023/04/02 12:51:46;;;;;;;;;;;15.40;99.90;;;;;;5064681;28;20297;-57
2023/04/02 12:54:13;;;;;;;;;;;15.50;99.90;;;;;;5075023;28;19921;-57
2023/04/02 12:56:39;;;;;;;;;;;15.60;99.90;;;;;;5075208;28;20405;-57
2023/04/02 12:59:05;;;;;;;;;;;15.60;99.90;;;;;;5075279;28;19921;-57
2023/04/02 13:01:32;;;;;;;;;;;15.70;99.90;;;;;;5075096;28;19916;-57
2023/04/02 13:04:02;;;;;;;;;;;15.80;99.90;;;;;;5075363;28;19913;-57
2023/04/02 13:06:29;;;;;;;;;;;15.90;99.90;;;;;;5075000;28;20381;-57
2023/04/02 13:08:55;;;;;;;;;;;15.90;99.90;;;;;;5074884;28;19920;-57
2023/04/02 13:11:22;;;;;;;;;;;16.00;99.90;;;;;;5075155;28;19917;-57
2023/04/02 13:13:48;;;;;;;;;;;16.00;99.90;;;;;;5075332;28;19912;-57
2023/04/02 13:16:14;;;;;;;;;;;15.80;99.90;;;;;;5074857;28;19913;-57
2023/04/02 13:18:40;;;;;;;;;;;15.90;99.90;;;;;;5074939;28;19970;-57
2023/04/02 13:21:15;;;;;;;;;;;16.10;99.90;;;;;;5074911;28;20002;-57
2023/04/02 13:23:41;;;;;;;;;;;16.10;99.90;;;;;;5074901;28;19913;-57
2023/04/02 13:26:23;;;;;;;;;;;16.00;99.90;;;;;;5074918;28;19924;-57
2023/04/02 13:28:58;;;;;;;;;;;16.00;99.90;;;;;;5074881;28;19916;-57
2023/04/02 13:31:24;;;;;;;;;;;16.10;99.90;;;;;;5074853;28;19916;-57
2023/04/02 13:33:50;;;;;;;;;;;16.00;99.90;;;;;;5074801;28;19912;-57
2023/04/02 13:36:16;;;;;;;;;;;16.10;99.90;;;;;;5074735;28;19924;-57
2023/04/02 13:38:42;;;;;;;;;;;16.10;99.90;;;;;;5074916;28;20067;-57
2023/04/02 13:41:27;;;;;;;;;;;16.00;99.90;;;;;;5074650;28;19912;-57
2023/04/02 13:43:53;;;;;;;;;;;15.80;99.90;;;;;;5074960;28;19936;-57
2023/04/02 13:46:21;;;;;;;;;;;15.60;99.90;;;;;;5074620;28;19916;-57
2023/04/02 13:48:48;;;;;;;;;;;14.70;99.90;;;;;;5077921;28;19920;-57
2023/04/02 13:51:18;;;;;;;;;;;14.50;99.90;;;;;;5078841;28;20322;-57
2023/04/02 13:53:45;;;;;;;;;;;14.40;99.90;;;;;;5078811;28;19920;-57
2023/04/02 13:56:11;;;;;;;;;;;14.20;99.90;;;;;;5078704;28;19916;-57
2023/04/02 13:58:37;;;;;;;;;;;14.10;99.90;;;;;;5078502;28;19916;-56
2023/04/02 14:01:03;;;;;;;;;;;13.80;99.90;;;;;;5078798;28;20058;-56
2023/04/02 14:03:29;;;;;;;;;;;13.60;99.90;;;;;;5078732;28;19912;-57
2023/04/02 14:06:07;;;;;;;;;;;13.40;99.90;;;;;;5078433;28;20292;-57
2023/04/02 14:08:44;;;;;;;;;;;13.20;99.90;;;;;;5078356;28;19913;-57
2023/04/02 14:11:12;;;;;;;;;;;13.10;99.90;;;;;;5078464;28;20031;-56
2023/04/02 14:14:02;;;;;;;;;;;13.00;99.90;;;;;;5078661;28;20029;-57
2023/04/02 14:16:57;;;;;;;;;;;12.90;99.90;;;;;;5078186;28;19982;-56
2023/04/02 14:19:28;;;;;;;;;;;12.70;99.90;;;;;;5060839;28;19912;-56
2023/04/02 14:21:57;;;;;;;;;;;12.60;99.90;;;;;;5078269;28;19920;-57
2023/04/02 14:24:29;;;;;;;;;;;12.60;99.90;;;;;;5078235;28;20515;-57
2023/04/02 14:27:03;;;;;;;;;;;12.60;99.90;;;;;;5078353;28;19916;-56
2023/04/02 14:29:36;;;;;;;;;;;12.50;99.90;;;;;;5078223;28;19912;-56
2023/04/02 14:32:08;;;;;;;;;;;12.30;99.90;;;;;;5078119;28;19999;-56
2023/04/02 14:34:57;;;;;;;;;;;12.20;99.90;;;;;;5078003;28;20272;-56
2023/04/02 14:37:42;;;;;;;;;;;12.10;99.90;;;;;;5077840;28;19920;-56
2023/04/02 14:40:25;;;;;;;;;;;11.80;99.90;;;;;;5077904;28;19912;-56
2023/04/02 14:43:09;;;;;;;;;;;11.60;99.90;;;;;;5077853;28;19974;-56
2023/04/02 14:45:35;;;;;;;;;;;11.50;99.90;;;;;;5077859;28;19981;-56
2023/04/02 14:48:04;;;;;;;;;;;11.50;99.90;;;;;;5077745;28;19912;-56
2023/04/02 14:50:32;;;;;;;;;;;11.40;99.90;;;;;;5077743;28;20376;-56